sensor_id;sensor_type;location;lat;lon;timestamp;P1;durP1;ratioP1;P2;durP2;ratioP2
39218;SDS011;24934;52.752;6.964;2022-08-25T00:01:42;4.20;;;4.00;;
39218;SDS011;24934;52.752;6.964;2022-08-25T00:04:10;4.00;;;3.75;;
39218;SDS011;24934;52.752;6.964;2022-08-25T00:06:38;4.22;;;3.92;;
39218;SDS011;24934;52.752;6.964;2022-08-25T00:09:15;3.78;;;3.53;;
39218;SDS011;24934;52.752;6.964;2022-08-25T00:11:42;3.88;;;3.67;;
39218;SDS011;24934;52.752;6.964;2022-08-25T00:14:12;4.68;;;4.38;;
39218;SDS011;24934;52.752;6.964;2022-08-25T00:16:41;4.20;;;3.85;;
39218;SDS011;24934;52.752;6.964;2022-08-25T00:19:13;3.72;;;3.53;;
39218;SDS011;24934;52.752;6.964;2022-08-25T00:21:41;5.18;;;4.13;;
39218;SDS011;24934;52.752;6.964;2022-08-25T00:24:08;5.18;;;4.20;;
39218;SDS011;24934;52.752;6.964;2022-08-25T00:26:39;4.47;;;4.18;;
39218;SDS011;24934;52.752;6.964;2022-08-25T00:29:07;4.85;;;4.35;;
39218;SDS011;24934;52.752;6.964;2022-08-25T00:31:36;4.43;;;4.13;;
39218;SDS011;24934;52.752;6.964;2022-08-25T00:34:03;3.97;;;3.75;;
39218;SDS011;24934;52.752;6.964;2022-08-25T00:36:31;4.57;;;4.28;;
39218;SDS011;24934;52.752;6.964;2022-08-25T00:38:57;4.38;;;4.07;;
39218;SDS011;24934;52.752;6.964;2022-08-25T00:41:25;4.47;;;4.18;;
39218;SDS011;24934;52.752;6.964;2022-08-25T00:43:55;4.38;;;4.07;;
39218;SDS011;24934;52.752;6.964;2022-08-25T00:46:28;4.90;;;4.60;;
39218;SDS011;24934;52.752;6.964;2022-08-25T00:49:03;4.43;;;4.13;;
39218;SDS011;24934;52.752;6.964;2022-08-25T00:51:38;4.72;;;4.30;;
39218;SDS011;24934;52.752;6.964;2022-08-25T00:54:07;3.70;;;3.47;;
39218;SDS011;24934;52.752;6.964;2022-08-25T00:56:38;4.40;;;4.10;;
39218;SDS011;24934;52.752;6.964;2022-08-25T00:59:04;4.43;;;4.13;;
39218;SDS011;24934;52.752;6.964;2022-08-25T01:01:30;4.40;;;4.00;;
39218;SDS011;24934;52.752;6.964;2022-08-25T01:03:56;3.90;;;3.60;;
39218;SDS011;24934;52.752;6.964;2022-08-25T01:06:21;4.40;;;4.15;;
39218;SDS011;24934;52.752;6.964;2022-08-25T01:08:48;4.32;;;4.13;;
39218;SDS011;24934;52.752;6.964;2022-08-25T01:11:18;3.80;;;3.60;;
39218;SDS011;24934;52.752;6.964;2022-08-25T01:13:48;4.38;;;4.07;;
39218;SDS011;24934;52.752;6.964;2022-08-25T01:16:17;3.30;;;3.10;;
39218;SDS011;24934;52.752;6.964;2022-08-25T01:21:08;4.45;;;4.10;;
39218;SDS011;24934;52.752;6.964;2022-08-25T01:23:34;4.35;;;4.05;;
39218;SDS011;24934;52.752;6.964;2022-08-25T01:26:04;4.95;;;4.57;;
39218;SDS011;24934;52.752;6.964;2022-08-25T01:28:40;4.25;;;3.85;;
39218;SDS011;24934;52.752;6.964;2022-08-25T01:31:27;3.85;;;3.65;;
39218;SDS011;24934;52.752;6.964;2022-08-25T01:33:54;3.85;;;3.58;;
39218;SDS011;24934;52.752;6.964;2022-08-25T01:36:24;3.42;;;3.22;;
39218;SDS011;24934;52.752;6.964;2022-08-25T01:38:51;3.75;;;3.45;;
39218;SDS011;24934;52.752;6.964;2022-08-25T01:44:06;4.00;;;3.80;;
39218;SDS011;24934;52.752;6.964;2022-08-25T01:46:36;6.07;;;5.35;;
39218;SDS011;24934;52.752;6.964;2022-08-25T01:49:03;3.83;;;3.60;;
39218;SDS011;24934;52.752;6.964;2022-08-25T01:51:32;3.47;;;3.28;;
39218;SDS011;24934;52.752;6.964;2022-08-25T01:54:03;4.65;;;3.83;;
39218;SDS011;24934;52.752;6.964;2022-08-25T01:56:28;3.97;;;3.70;;
39218;SDS011;24934;52.752;6.964;2022-08-25T01:58:55;4.10;;;3.80;;
39218;SDS011;24934;52.752;6.964;2022-08-25T02:01:22;4.43;;;4.15;;
39218;SDS011;24934;52.752;6.964;2022-08-25T02:03:50;4.95;;;4.65;;
39218;SDS011;24934;52.752;6.964;2022-08-25T02:06:19;4.80;;;4.50;;
39218;SDS011;24934;52.752;6.964;2022-08-25T02:08:52;5.03;;;4.72;;
39218;SDS011;24934;52.752;6.964;2022-08-25T02:11:19;4.68;;;4.38;;
39218;SDS011;24934;52.752;6.964;2022-08-25T02:13:46;9.60;;;4.05;;
39218;SDS011;24934;52.752;6.964;2022-08-25T02:16:31;4.68;;;4.38;;
39218;SDS011;24934;52.752;6.964;2022-08-25T02:19:00;3.90;;;3.70;;
39218;SDS011;24934;52.752;6.964;2022-08-25T02:21:26;5.22;;;4.82;;
39218;SDS011;24934;52.752;6.964;2022-08-25T02:23:52;3.70;;;3.50;;
39218;SDS011;24934;52.752;6.964;2022-08-25T02:26:18;4.38;;;4.10;;
39218;SDS011;24934;52.752;6.964;2022-08-25T02:28:50;5.47;;;3.50;;
39218;SDS011;24934;52.752;6.964;2022-08-25T02:31:18;3.83;;;3.60;;
39218;SDS011;24934;52.752;6.964;2022-08-25T02:33:45;4.40;;;4.10;;
39218;SDS011;24934;52.752;6.964;2022-08-25T02:36:11;4.22;;;3.92;;
39218;SDS011;24934;52.752;6.964;2022-08-25T02:38:37;5.07;;;4.70;;
39218;SDS011;24934;52.752;6.964;2022-08-25T02:41:08;4.90;;;4.60;;
39218;SDS011;24934;52.752;6.964;2022-08-25T02:43:36;4.05;;;3.72;;
39218;SDS011;24934;52.752;6.964;2022-08-25T02:46:03;5.75;;;5.18;;
39218;SDS011;24934;52.752;6.964;2022-08-25T02:48:29;5.82;;;5.50;;
39218;SDS011;24934;52.752;6.964;2022-08-25T02:50:57;4.30;;;4.00;;
39218;SDS011;24934;52.752;6.964;2022-08-25T02:53:25;4.28;;;3.97;;
39218;SDS011;24934;52.752;6.964;2022-08-25T02:55:52;3.67;;;3.47;;
39218;SDS011;24934;52.752;6.964;2022-08-25T02:58:19;4.07;;;3.83;;
39218;SDS011;24934;52.752;6.964;2022-08-25T03:00:46;3.85;;;3.60;;
39218;SDS011;24934;52.752;6.964;2022-08-25T03:03:12;5.00;;;4.63;;
39218;SDS011;24934;52.752;6.964;2022-08-25T03:05:38;4.15;;;3.85;;
39218;SDS011;24934;52.752;6.964;2022-08-25T03:08:05;3.67;;;3.47;;
39218;SDS011;24934;52.752;6.964;2022-08-25T03:10:31;4.22;;;3.92;;
39218;SDS011;24934;52.752;6.964;2022-08-25T03:12:57;4.85;;;4.55;;
39218;SDS011;24934;52.752;6.964;2022-08-25T03:15:23;7.15;;;4.53;;
39218;SDS011;24934;52.752;6.964;2022-08-25T03:17:51;3.28;;;3.08;;
39218;SDS011;24934;52.752;6.964;2022-08-25T03:20:18;4.40;;;3.92;;
39218;SDS011;24934;52.752;6.964;2022-08-25T03:22:44;4.18;;;3.97;;
39218;SDS011;24934;52.752;6.964;2022-08-25T03:25:10;4.30;;;4.00;;
39218;SDS011;24934;52.752;6.964;2022-08-25T03:27:57;4.40;;;4.10;;
39218;SDS011;24934;52.752;6.964;2022-08-25T03:30:22;5.10;;;4.63;;
39218;SDS011;24934;52.752;6.964;2022-08-25T03:32:48;4.50;;;4.07;;
39218;SDS011;24934;52.752;6.964;2022-08-25T03:35:14;4.15;;;3.85;;
39218;SDS011;24934;52.752;6.964;2022-08-25T03:37:39;4.18;;;3.97;;
39218;SDS011;24934;52.752;6.964;2022-08-25T03:40:06;4.95;;;4.65;;
39218;SDS011;24934;52.752;6.964;2022-08-25T03:42:34;4.20;;;3.90;;
39218;SDS011;24934;52.752;6.964;2022-08-25T03:45:03;4.45;;;4.10;;
39218;SDS011;24934;52.752;6.964;2022-08-25T03:47:29;4.53;;;4.07;;
39218;SDS011;24934;52.752;6.964;2022-08-25T03:49:55;4.03;;;3.72;;
39218;SDS011;24934;52.752;6.964;2022-08-25T03:52:21;4.30;;;4.00;;
39218;SDS011;24934;52.752;6.964;2022-08-25T03:54:47;4.25;;;3.95;;
39218;SDS011;24934;52.752;6.964;2022-08-25T03:57:13;4.25;;;3.95;;
39218;SDS011;24934;52.752;6.964;2022-08-25T03:59:39;4.47;;;4.18;;
39218;SDS011;24934;52.752;6.964;2022-08-25T04:02:05;4.25;;;4.00;;
39218;SDS011;24934;52.752;6.964;2022-08-25T04:04:31;3.72;;;3.53;;
39218;SDS011;24934;52.752;6.964;2022-08-25T04:06:57;5.00;;;4.65;;
39218;SDS011;24934;52.752;6.964;2022-08-25T04:09:23;4.18;;;3.92;;
39218;SDS011;24934;52.752;6.964;2022-08-25T04:11:50;4.60;;;4.30;;
39218;SDS011;24934;52.752;6.964;2022-08-25T04:14:16;4.30;;;4.00;;
39218;SDS011;24934;52.752;6.964;2022-08-25T04:16:42;3.90;;;3.70;;
39218;SDS011;24934;52.752;6.964;2022-08-25T04:19:09;4.00;;;3.72;;
39218;SDS011;24934;52.752;6.964;2022-08-25T04:21:36;3.65;;;3.35;;
39218;SDS011;24934;52.752;6.964;2022-08-25T04:24:03;3.65;;;3.45;;
39218;SDS011;24934;52.752;6.964;2022-08-25T04:26:33;4.50;;;4.20;;
39218;SDS011;24934;52.752;6.964;2022-08-25T04:29:01;3.90;;;3.70;;
39218;SDS011;24934;52.752;6.964;2022-08-25T04:31:32;4.43;;;4.13;;
39218;SDS011;24934;52.752;6.964;2022-08-25T04:34:00;5.00;;;4.70;;
39218;SDS011;24934;52.752;6.964;2022-08-25T04:36:27;4.22;;;4.03;;
39218;SDS011;24934;52.752;6.964;2022-08-25T04:38:53;5.18;;;4.80;;
39218;SDS011;24934;52.752;6.964;2022-08-25T04:41:19;5.53;;;5.13;;
39218;SDS011;24934;52.752;6.964;2022-08-25T04:43:47;5.05;;;4.75;;
39218;SDS011;24934;52.752;6.964;2022-08-25T04:46:17;6.10;;;5.50;;
39218;SDS011;24934;52.752;6.964;2022-08-25T04:48:48;5.88;;;5.47;;
39218;SDS011;24934;52.752;6.964;2022-08-25T04:51:19;5.90;;;5.50;;
39218;SDS011;24934;52.752;6.964;2022-08-25T04:53:48;5.68;;;5.22;;
39218;SDS011;24934;52.752;6.964;2022-08-25T04:56:15;10.98;;;6.75;;
39218;SDS011;24934;52.752;6.964;2022-08-25T04:58:43;5.57;;;5.18;;
39218;SDS011;24934;52.752;6.964;2022-08-25T05:01:15;5.22;;;4.93;;
39218;SDS011;24934;52.752;6.964;2022-08-25T05:03:43;5.55;;;5.20;;
39218;SDS011;24934;52.752;6.964;2022-08-25T05:06:10;6.20;;;5.80;;
39218;SDS011;24934;52.752;6.964;2022-08-25T05:08:36;6.22;;;5.82;;
39218;SDS011;24934;52.752;6.964;2022-08-25T05:11:06;6.20;;;5.80;;
39218;SDS011;24934;52.752;6.964;2022-08-25T05:13:37;5.90;;;5.50;;
39218;SDS011;24934;52.752;6.964;2022-08-25T05:16:03;6.35;;;5.95;;
39218;SDS011;24934;52.752;6.964;2022-08-25T05:18:30;6.50;;;6.10;;
39218;SDS011;24934;52.752;6.964;2022-08-25T05:21:01;6.20;;;5.80;;
39218;SDS011;24934;52.752;6.964;2022-08-25T05:23:29;7.22;;;6.63;;
39218;SDS011;24934;52.752;6.964;2022-08-25T05:25:55;6.30;;;5.90;;
39218;SDS011;24934;52.752;6.964;2022-08-25T05:28:34;6.25;;;5.85;;
39218;SDS011;24934;52.752;6.964;2022-08-25T05:31:01;6.22;;;5.80;;
39218;SDS011;24934;52.752;6.964;2022-08-25T05:33:27;6.40;;;5.80;;
39218;SDS011;24934;52.752;6.964;2022-08-25T05:35:53;6.53;;;6.10;;
39218;SDS011;24934;52.752;6.964;2022-08-25T05:38:19;6.60;;;6.20;;
39218;SDS011;24934;52.752;6.964;2022-08-25T05:40:45;6.50;;;6.00;;
39218;SDS011;24934;52.752;6.964;2022-08-25T05:43:11;7.28;;;6.70;;
39218;SDS011;24934;52.752;6.964;2022-08-25T05:45:39;6.50;;;6.10;;
39218;SDS011;24934;52.752;6.964;2022-08-25T05:48:06;7.75;;;7.15;;
39218;SDS011;24934;52.752;6.964;2022-08-25T05:50:32;11.43;;;6.93;;
39218;SDS011;24934;52.752;6.964;2022-08-25T05:52:58;6.45;;;6.05;;
39218;SDS011;24934;52.752;6.964;2022-08-25T05:55:23;6.30;;;5.80;;
39218;SDS011;24934;52.752;6.964;2022-08-25T05:57:49;6.40;;;6.00;;
39218;SDS011;24934;52.752;6.964;2022-08-25T06:00:15;6.70;;;6.30;;
39218;SDS011;24934;52.752;6.964;2022-08-25T06:02:41;7.65;;;6.05;;
39218;SDS011;24934;52.752;6.964;2022-08-25T06:07:40;6.80;;;6.32;;
39218;SDS011;24934;52.752;6.964;2022-08-25T06:10:07;6.25;;;5.75;;
39218;SDS011;24934;52.752;6.964;2022-08-25T06:12:38;4.95;;;4.65;;
39218;SDS011;24934;52.752;6.964;2022-08-25T06:15:08;5.40;;;5.10;;
39218;SDS011;24934;52.752;6.964;2022-08-25T06:17:35;5.57;;;5.28;;
39218;SDS011;24934;52.752;6.964;2022-08-25T06:20:05;6.05;;;5.65;;
39218;SDS011;24934;52.752;6.964;2022-08-25T06:22:33;5.47;;;5.07;;
39218;SDS011;24934;52.752;6.964;2022-08-25T06:24:59;5.13;;;4.82;;
39218;SDS011;24934;52.752;6.964;2022-08-25T06:27:24;5.22;;;4.82;;
39218;SDS011;24934;52.752;6.964;2022-08-25T06:29:50;5.13;;;4.72;;
39218;SDS011;24934;52.752;6.964;2022-08-25T06:32:15;5.55;;;5.05;;
39218;SDS011;24934;52.752;6.964;2022-08-25T06:34:41;5.55;;;5.00;;
39218;SDS011;24934;52.752;6.964;2022-08-25T06:37:07;4.65;;;4.35;;
39218;SDS011;24934;52.752;6.964;2022-08-25T06:39:32;4.80;;;4.50;;
39218;SDS011;24934;52.752;6.964;2022-08-25T06:42:01;7.28;;;5.68;;
39218;SDS011;24934;52.752;6.964;2022-08-25T06:44:26;5.57;;;5.10;;
39218;SDS011;24934;52.752;6.964;2022-08-25T06:46:52;4.93;;;4.63;;
39218;SDS011;24934;52.752;6.964;2022-08-25T06:49:20;5.47;;;5.18;;
39218;SDS011;24934;52.752;6.964;2022-08-25T06:51:46;5.38;;;5.07;;
39218;SDS011;24934;52.752;6.964;2022-08-25T06:54:12;5.30;;;5.00;;
39218;SDS011;24934;52.752;6.964;2022-08-25T06:56:40;5.65;;;5.25;;
39218;SDS011;24934;52.752;6.964;2022-08-25T06:59:07;5.70;;;5.30;;
39218;SDS011;24934;52.752;6.964;2022-08-25T07:01:33;6.18;;;5.78;;
39218;SDS011;24934;52.752;6.964;2022-08-25T07:04:02;6.28;;;5.82;;
39218;SDS011;24934;52.752;6.964;2022-08-25T07:06:30;6.35;;;5.88;;
39218;SDS011;24934;52.752;6.964;2022-08-25T07:08:59;5.65;;;5.30;;
39218;SDS011;24934;52.752;6.964;2022-08-25T07:11:25;5.70;;;5.40;;
39218;SDS011;24934;52.752;6.964;2022-08-25T07:13:51;6.13;;;5.78;;
39218;SDS011;24934;52.752;6.964;2022-08-25T07:16:19;6.60;;;6.20;;
39218;SDS011;24934;52.752;6.964;2022-08-25T07:18:45;6.30;;;5.90;;
39218;SDS011;24934;52.752;6.964;2022-08-25T07:21:12;6.43;;;6.03;;
39218;SDS011;24934;52.752;6.964;2022-08-25T07:23:39;6.35;;;5.95;;
39218;SDS011;24934;52.752;6.964;2022-08-25T07:26:07;6.38;;;5.97;;
39218;SDS011;24934;52.752;6.964;2022-08-25T07:28:41;8.25;;;6.32;;
39218;SDS011;24934;52.752;6.964;2022-08-25T07:31:08;5.50;;;5.20;;
39218;SDS011;24934;52.752;6.964;2022-08-25T07:33:33;6.57;;;6.10;;
39218;SDS011;24934;52.752;6.964;2022-08-25T07:35:59;6.32;;;5.90;;
39218;SDS011;24934;52.752;6.964;2022-08-25T07:38:25;6.50;;;6.10;;
39218;SDS011;24934;52.752;6.964;2022-08-25T07:40:50;5.78;;;5.47;;
39218;SDS011;24934;52.752;6.964;2022-08-25T07:43:20;6.72;;;6.32;;
39218;SDS011;24934;52.752;6.964;2022-08-25T07:45:46;6.22;;;5.82;;
39218;SDS011;24934;52.752;6.964;2022-08-25T07:48:13;5.50;;;5.20;;
39218;SDS011;24934;52.752;6.964;2022-08-25T07:50:40;6.20;;;5.70;;
39218;SDS011;24934;52.752;6.964;2022-08-25T07:53:10;5.55;;;5.25;;
39218;SDS011;24934;52.752;6.964;2022-08-25T07:55:38;5.50;;;5.10;;
39218;SDS011;24934;52.752;6.964;2022-08-25T07:58:05;6.10;;;5.70;;
39218;SDS011;24934;52.752;6.964;2022-08-25T08:00:33;5.95;;;5.55;;
39218;SDS011;24934;52.752;6.964;2022-08-25T08:03:04;5.80;;;5.50;;
39218;SDS011;24934;52.752;6.964;2022-08-25T08:05:31;5.82;;;5.43;;
39218;SDS011;24934;52.752;6.964;2022-08-25T08:07:58;5.88;;;5.47;;
39218;SDS011;24934;52.752;6.964;2022-08-25T08:10:24;6.28;;;5.88;;
39218;SDS011;24934;52.752;6.964;2022-08-25T08:12:50;6.00;;;5.57;;
39218;SDS011;24934;52.752;6.964;2022-08-25T08:15:16;5.65;;;5.35;;
39218;SDS011;24934;52.752;6.964;2022-08-25T08:17:43;6.03;;;5.65;;
39218;SDS011;24934;52.752;6.964;2022-08-25T08:20:09;6.22;;;5.80;;
39218;SDS011;24934;52.752;6.964;2022-08-25T08:22:37;6.03;;;5.70;;
39218;SDS011;24934;52.752;6.964;2022-08-25T08:25:05;6.30;;;5.90;;
39218;SDS011;24934;52.752;6.964;2022-08-25T08:27:32;6.97;;;6.50;;
39218;SDS011;24934;52.752;6.964;2022-08-25T08:29:58;6.80;;;6.30;;
39218;SDS011;24934;52.752;6.964;2022-08-25T08:32:25;6.40;;;6.00;;
39218;SDS011;24934;52.752;6.964;2022-08-25T08:34:50;6.18;;;5.78;;
39218;SDS011;24934;52.752;6.964;2022-08-25T08:37:19;5.70;;;5.30;;
39218;SDS011;24934;52.752;6.964;2022-08-25T08:39:46;5.97;;;5.68;;
39218;SDS011;24934;52.752;6.964;2022-08-25T08:42:22;6.38;;;5.97;;
39218;SDS011;24934;52.752;6.964;2022-08-25T08:45:28;6.50;;;6.10;;
39218;SDS011;24934;52.752;6.964;2022-08-25T08:50:33;6.35;;;5.95;;
39218;SDS011;24934;52.752;6.964;2022-08-25T08:58:55;6.38;;;5.97;;
39218;SDS011;24934;52.752;6.964;2022-08-25T09:01:06;6.60;;;6.20;;
39218;SDS011;24934;52.752;6.964;2022-08-25T09:03:36;6.45;;;6.05;;
39218;SDS011;24934;52.752;6.964;2022-08-25T09:06:09;6.50;;;6.00;;
39218;SDS011;24934;52.752;6.964;2022-08-25T09:08:44;6.95;;;6.53;;
39218;SDS011;24934;52.752;6.964;2022-08-25T09:14:11;6.95;;;6.45;;
39218;SDS011;24934;52.752;6.964;2022-08-25T09:16:54;6.80;;;6.40;;
39218;SDS011;24934;52.752;6.964;2022-08-25T09:22:41;7.55;;;7.05;;
39218;SDS011;24934;52.752;6.964;2022-08-25T09:26:10;8.13;;;7.63;;
39218;SDS011;24934;52.752;6.964;2022-08-25T09:28:07;7.72;;;7.22;;
39218;SDS011;24934;52.752;6.964;2022-08-25T09:33:24;8.48;;;7.80;;
39218;SDS011;24934;52.752;6.964;2022-08-25T09:35:55;7.68;;;7.22;;
39218;SDS011;24934;52.752;6.964;2022-08-25T09:38:21;7.47;;;7.07;;
39218;SDS011;24934;52.752;6.964;2022-08-25T09:40:49;8.38;;;7.78;;
39218;SDS011;24934;52.752;6.964;2022-08-25T09:43:40;8.00;;;7.40;;
39218;SDS011;24934;52.752;6.964;2022-08-25T09:46:09;8.45;;;7.95;;
39218;SDS011;24934;52.752;6.964;2022-08-25T09:51:38;8.13;;;7.63;;
39218;SDS011;24934;52.752;6.964;2022-08-25T09:56:54;7.70;;;7.20;;
39218;SDS011;24934;52.752;6.964;2022-08-25T09:59:26;7.95;;;7.40;;
39218;SDS011;24934;52.752;6.964;2022-08-25T10:02:59;7.30;;;6.80;;
39218;SDS011;24934;52.752;6.964;2022-08-25T10:04:51;7.30;;;6.80;;
39218;SDS011;24934;52.752;6.964;2022-08-25T10:09:50;7.30;;;6.90;;
39218;SDS011;24934;52.752;6.964;2022-08-25T10:12:22;6.75;;;6.35;;
39218;SDS011;24934;52.752;6.964;2022-08-25T10:14:55;7.10;;;6.70;;
39218;SDS011;24934;52.752;6.964;2022-08-25T10:17:25;7.53;;;7.03;;
39218;SDS011;24934;52.752;6.964;2022-08-25T10:20:38;7.70;;;7.22;;
39218;SDS011;24934;52.752;6.964;2022-08-25T10:22:40;7.63;;;7.03;;
39218;SDS011;24934;52.752;6.964;2022-08-25T10:25:08;7.50;;;7.03;;
39218;SDS011;24934;52.752;6.964;2022-08-25T10:30:16;7.82;;;7.32;;
39218;SDS011;24934;52.752;6.964;2022-08-25T10:35:30;7.30;;;6.90;;
39218;SDS011;24934;52.752;6.964;2022-08-25T10:45:48;7.50;;;7.00;;
39218;SDS011;24934;52.752;6.964;2022-08-25T10:48:25;7.35;;;6.82;;
39218;SDS011;24934;52.752;6.964;2022-08-25T10:51:28;7.65;;;7.05;;
39218;SDS011;24934;52.752;6.964;2022-08-25T10:53:58;7.65;;;7.20;;
39218;SDS011;24934;52.752;6.964;2022-08-25T10:56:49;6.93;;;6.53;;
39218;SDS011;24934;52.752;6.964;2022-08-25T11:04:37;6.88;;;6.47;;
39218;SDS011;24934;52.752;6.964;2022-08-25T11:07:09;7.00;;;6.60;;
39218;SDS011;24934;52.752;6.964;2022-08-25T11:09:43;7.30;;;6.90;;
39218;SDS011;24934;52.752;6.964;2022-08-25T11:14:51;7.70;;;7.07;;
39218;SDS011;24934;52.752;6.964;2022-08-25T11:17:24;8.27;;;7.57;;
39218;SDS011;24934;52.752;6.964;2022-08-25T11:20:07;7.82;;;7.32;;
39218;SDS011;24934;52.752;6.964;2022-08-25T11:25:13;7.80;;;7.30;;
39218;SDS011;24934;52.752;6.964;2022-08-25T11:27:59;8.00;;;7.50;;
39218;SDS011;24934;52.752;6.964;2022-08-25T11:30:45;8.10;;;7.60;;
39218;SDS011;24934;52.752;6.964;2022-08-25T11:33:13;7.95;;;7.45;;
39218;SDS011;24934;52.752;6.964;2022-08-25T11:35:48;8.20;;;7.70;;
39218;SDS011;24934;52.752;6.964;2022-08-25T11:46:26;9.50;;;8.63;;
39218;SDS011;24934;52.752;6.964;2022-08-25T11:51:49;8.38;;;7.78;;
39218;SDS011;24934;52.752;6.964;2022-08-25T11:54:17;8.10;;;7.60;;
39218;SDS011;24934;52.752;6.964;2022-08-25T11:57:01;8.13;;;7.63;;
39218;SDS011;24934;52.752;6.964;2022-08-25T12:16:04;8.82;;;8.27;;
39218;SDS011;24934;52.752;6.964;2022-08-25T12:23:32;8.93;;;8.32;;
39218;SDS011;24934;52.752;6.964;2022-08-25T12:26:06;8.77;;;8.25;;
39218;SDS011;24934;52.752;6.964;2022-08-25T12:28:46;8.25;;;7.75;;
39218;SDS011;24934;52.752;6.964;2022-08-25T12:31:41;8.70;;;8.20;;
39218;SDS011;24934;52.752;6.964;2022-08-25T12:37:19;8.13;;;7.63;;
39218;SDS011;24934;52.752;6.964;2022-08-25T12:42:31;8.80;;;8.30;;
39218;SDS011;24934;52.752;6.964;2022-08-25T12:45:12;8.70;;;8.20;;
39218;SDS011;24934;52.752;6.964;2022-08-25T12:47:57;8.48;;;7.95;;
39218;SDS011;24934;52.752;6.964;2022-08-25T13:12:45;7.90;;;7.40;;
39218;SDS011;24934;52.752;6.964;2022-08-25T13:15:32;8.10;;;7.57;;
39218;SDS011;24934;52.752;6.964;2022-08-25T13:20:51;8.63;;;8.07;;
39218;SDS011;24934;52.752;6.964;2022-08-25T13:23:39;8.30;;;7.80;;
39218;SDS011;24934;52.752;6.964;2022-08-25T13:26:07;8.32;;;7.82;;
39218;SDS011;24934;52.752;6.964;2022-08-25T13:28:37;8.00;;;7.50;;
39218;SDS011;24934;52.752;6.964;2022-08-25T13:31:15;8.73;;;8.13;;
39218;SDS011;24934;52.752;6.964;2022-08-25T13:33:52;7.75;;;7.30;;
39218;SDS011;24934;52.752;6.964;2022-08-25T13:36:27;7.90;;;7.40;;
39218;SDS011;24934;52.752;6.964;2022-08-25T13:39:23;7.85;;;7.35;;
39218;SDS011;24934;52.752;6.964;2022-08-25T13:41:53;8.30;;;7.80;;
39218;SDS011;24934;52.752;6.964;2022-08-25T13:44:22;7.97;;;7.47;;
39218;SDS011;24934;52.752;6.964;2022-08-25T13:47:06;8.10;;;7.60;;
39218;SDS011;24934;52.752;6.964;2022-08-25T13:49:51;7.97;;;7.47;;
39218;SDS011;24934;52.752;6.964;2022-08-25T13:52:36;7.80;;;7.30;;
39218;SDS011;24934;52.752;6.964;2022-08-25T13:55:02;7.20;;;6.80;;
39218;SDS011;24934;52.752;6.964;2022-08-25T13:57:28;7.00;;;6.60;;
39218;SDS011;24934;52.752;6.964;2022-08-25T13:59:55;7.15;;;6.65;;
39218;SDS011;24934;52.752;6.964;2022-08-25T14:02:48;7.10;;;6.70;;
39218;SDS011;24934;52.752;6.964;2022-08-25T14:05:26;7.03;;;6.63;;
39218;SDS011;24934;52.752;6.964;2022-08-25T14:08:02;7.60;;;7.00;;
39218;SDS011;24934;52.752;6.964;2022-08-25T14:10:30;7.40;;;7.00;;
39218;SDS011;24934;52.752;6.964;2022-08-25T14:13:10;6.97;;;6.57;;
39218;SDS011;24934;52.752;6.964;2022-08-25T14:15:39;6.85;;;6.45;;
39218;SDS011;24934;52.752;6.964;2022-08-25T14:20:42;7.22;;;6.82;;
39218;SDS011;24934;52.752;6.964;2022-08-25T14:23:16;7.00;;;6.60;;
39218;SDS011;24934;52.752;6.964;2022-08-25T14:25:48;6.30;;;5.90;;
39218;SDS011;24934;52.752;6.964;2022-08-25T14:28:16;6.28;;;5.88;;
39218;SDS011;24934;52.752;6.964;2022-08-25T14:30:48;6.15;;;5.85;;
39218;SDS011;24934;52.752;6.964;2022-08-25T14:33:16;6.60;;;6.00;;
39218;SDS011;24934;52.752;6.964;2022-08-25T14:35:46;6.30;;;5.90;;
39218;SDS011;24934;52.752;6.964;2022-08-25T14:38:13;6.18;;;5.80;;
39218;SDS011;24934;52.752;6.964;2022-08-25T14:40:41;5.75;;;5.45;;
39218;SDS011;24934;52.752;6.964;2022-08-25T14:43:10;6.78;;;6.28;;
39218;SDS011;24934;52.752;6.964;2022-08-25T14:45:37;6.10;;;5.70;;
39218;SDS011;24934;52.752;6.964;2022-08-25T14:48:06;6.60;;;6.20;;
39218;SDS011;24934;52.752;6.964;2022-08-25T14:50:34;6.10;;;5.80;;
39218;SDS011;24934;52.752;6.964;2022-08-25T14:53:00;6.15;;;5.78;;
39218;SDS011;24934;52.752;6.964;2022-08-25T14:55:26;5.47;;;5.18;;
39218;SDS011;24934;52.752;6.964;2022-08-25T14:57:52;5.90;;;5.60;;
39218;SDS011;24934;52.752;6.964;2022-08-25T15:00:17;5.80;;;5.40;;
39218;SDS011;24934;52.752;6.964;2022-08-25T15:02:43;6.30;;;5.90;;
39218;SDS011;24934;52.752;6.964;2022-08-25T15:05:19;6.15;;;5.82;;
39218;SDS011;24934;52.752;6.964;2022-08-25T15:07:48;6.20;;;5.90;;
39218;SDS011;24934;52.752;6.964;2022-08-25T15:10:33;6.13;;;5.82;;
39218;SDS011;24934;52.752;6.964;2022-08-25T15:12:59;6.35;;;5.95;;
39218;SDS011;24934;52.752;6.964;2022-08-25T15:15:24;6.30;;;5.90;;
39218;SDS011;24934;52.752;6.964;2022-08-25T15:17:52;6.40;;;6.00;;
39218;SDS011;24934;52.752;6.964;2022-08-25T15:20:19;5.93;;;5.63;;
39218;SDS011;24934;52.752;6.964;2022-08-25T15:22:45;5.60;;;5.30;;
39218;SDS011;24934;52.752;6.964;2022-08-25T15:25:12;6.43;;;6.03;;
39218;SDS011;24934;52.752;6.964;2022-08-25T15:27:41;6.30;;;5.90;;
39218;SDS011;24934;52.752;6.964;2022-08-25T15:30:07;5.68;;;5.38;;
39218;SDS011;24934;52.752;6.964;2022-08-25T15:32:33;6.25;;;5.80;;
39218;SDS011;24934;52.752;6.964;2022-08-25T15:34:58;5.38;;;5.03;;
39218;SDS011;24934;52.752;6.964;2022-08-25T15:37:24;5.30;;;5.00;;
39218;SDS011;24934;52.752;6.964;2022-08-25T15:39:50;5.30;;;5.00;;
39218;SDS011;24934;52.752;6.964;2022-08-25T15:42:25;5.30;;;5.00;;
39218;SDS011;24934;52.752;6.964;2022-08-25T15:44:52;5.05;;;4.68;;
39218;SDS011;24934;52.752;6.964;2022-08-25T15:47:18;5.40;;;5.00;;
39218;SDS011;24934;52.752;6.964;2022-08-25T15:49:48;5.20;;;4.80;;
39218;SDS011;24934;52.752;6.964;2022-08-25T15:52:18;5.57;;;5.18;;
39218;SDS011;24934;52.752;6.964;2022-08-25T15:54:45;4.80;;;4.50;;
39218;SDS011;24934;52.752;6.964;2022-08-25T15:57:10;4.80;;;4.50;;
39218;SDS011;24934;52.752;6.964;2022-08-25T15:59:36;6.00;;;5.20;;
39218;SDS011;24934;52.752;6.964;2022-08-25T16:02:02;4.97;;;4.57;;
39218;SDS011;24934;52.752;6.964;2022-08-25T16:04:27;5.63;;;5.00;;
39218;SDS011;24934;52.752;6.964;2022-08-25T16:06:53;5.82;;;5.40;;
39218;SDS011;24934;52.752;6.964;2022-08-25T16:09:25;5.57;;;5.07;;
39218;SDS011;24934;52.752;6.964;2022-08-25T16:11:51;5.53;;;5.22;;
39218;SDS011;24934;52.752;6.964;2022-08-25T16:14:16;5.63;;;5.22;;
39218;SDS011;24934;52.752;6.964;2022-08-25T16:16:42;6.00;;;5.60;;
39218;SDS011;24934;52.752;6.964;2022-08-25T16:19:08;6.15;;;5.75;;
39218;SDS011;24934;52.752;6.964;2022-08-25T16:21:33;6.13;;;5.75;;
39218;SDS011;24934;52.752;6.964;2022-08-25T16:24:01;6.43;;;6.03;;
39218;SDS011;24934;52.752;6.964;2022-08-25T16:26:29;8.40;;;6.47;;
39218;SDS011;24934;52.752;6.964;2022-08-25T16:28:55;7.05;;;6.55;;
39218;SDS011;24934;52.752;6.964;2022-08-25T16:31:30;7.18;;;6.57;;
39218;SDS011;24934;52.752;6.964;2022-08-25T16:33:56;9.20;;;6.78;;
39218;SDS011;24934;52.752;6.964;2022-08-25T16:36:23;7.90;;;7.20;;
39218;SDS011;24934;52.752;6.964;2022-08-25T16:38:50;10.80;;;6.72;;
39218;SDS011;24934;52.752;6.964;2022-08-25T16:41:18;6.07;;;5.68;;
39218;SDS011;24934;52.752;6.964;2022-08-25T16:43:48;6.75;;;6.28;;
39218;SDS011;24934;52.752;6.964;2022-08-25T16:46:15;7.00;;;6.50;;
39218;SDS011;24934;52.752;6.964;2022-08-25T16:48:45;6.55;;;6.15;;
39218;SDS011;24934;52.752;6.964;2022-08-25T16:51:14;5.63;;;5.30;;
39218;SDS011;24934;52.752;6.964;2022-08-25T16:53:44;5.80;;;5.47;;
39218;SDS011;24934;52.752;6.964;2022-08-25T16:56:31;6.35;;;5.95;;
39218;SDS011;24934;52.752;6.964;2022-08-25T16:59:14;6.18;;;5.78;;
39218;SDS011;24934;52.752;6.964;2022-08-25T17:01:40;5.70;;;5.40;;
39218;SDS011;24934;52.752;6.964;2022-08-25T17:04:06;7.03;;;6.43;;
39218;SDS011;24934;52.752;6.964;2022-08-25T17:06:39;6.45;;;5.95;;